Time;durP1;ratioP1;P1;durP2;ratioP2;P2;SDS_P1;SDS_P2;PMS_P1;PMS_P2;Temp;Humidity;BMP_temperature;BMP_pressure;BME280_temperature;BME280_humidity;BME280_pressure;Samples;Min_cycle;Max_cycle;Signal;HPM_P1;HPM_P2
2023/07/14 00:01:36;;;;;;;4.00;2.28;;;;;;;26.43;50.00;99604.78;4428390;32;33930;-64
2023/07/14 00:04:33;;;;;;;4.12;2.65;;;;;;;26.23;50.23;99607.66;4434452;32;33991;-65
2023/07/14 00:07:03;;;;;;;3.35;1.73;;;;;;;26.24;50.20;99618.38;4438305;32;35188;-64
2023/07/14 00:09:32;;;;;;;3.60;1.73;;;;;;;26.27;50.13;99613.53;4438310;32;33087;-65
2023/07/14 00:12:00;;;;;;;3.67;2.08;;;;;;;26.20;50.43;99614.41;4433773;32;33412;-64
2023/07/14 00:14:28;;;;;;;4.50;2.10;;;;;;;25.88;51.23;99608.03;4430214;32;34174;-65
2023/07/14 00:16:56;;;;;;;4.78;1.83;;;;;;;25.79;51.87;99620.25;4412430;32;35006;-65
2023/07/14 00:19:24;;;;;;;4.95;2.50;;;;;;;26.10;50.77;99616.78;4413406;32;33998;-64
2023/07/14 00:21:52;;;;;;;4.55;2.03;;;;;;;26.11;50.71;99615.72;4398941;32;33479;-64
2023/07/14 00:24:23;;;;;;;4.93;2.40;;;;;;;26.06;51.00;99614.69;4399937;32;33940;-65
2023/07/14 00:26:56;;;;;;;5.93;1.75;;;;;;;26.00;50.91;99622.75;4400807;32;33796;-65
2023/07/14 00:29:25;;;;;;;2.40;1.53;;;;;;;26.21;50.49;99616.06;4394015;32;33726;-67
2023/07/14 00:31:55;;;;;;;6.55;2.42;;;;;;;26.18;50.30;99623.91;4394706;32;33713;-68
2023/07/14 00:34:23;;;;;;;3.85;1.85;;;;;;;26.12;50.56;99624.78;4399893;32;33640;-68
2023/07/14 00:36:51;;;;;;;2.55;1.60;;;;;;;26.06;50.70;99618.25;4399870;32;33150;-67
2023/07/14 00:39:19;;;;;;;3.40;1.62;;;;;;;26.18;50.37;99613.78;4400237;32;33255;-67
2023/07/14 00:41:47;;;;;;;5.47;1.92;;;;;;;26.15;50.78;99621.59;4399199;32;34878;-67
2023/07/14 00:44:15;;;;;;;3.87;1.95;;;;;;;26.08;50.86;99613.41;4386642;32;33718;-67
2023/07/14 00:46:44;;;;;;;4.95;1.75;;;;;;;26.07;50.86;99619.09;4402813;32;34992;-67
2023/07/14 00:49:34;;;;;;;4.60;2.25;;;;;;;26.17;50.62;99612.09;4429637;32;33351;-67
2023/07/14 00:52:10;;;;;;;5.70;2.40;;;;;;;26.16;50.60;99617.78;4428374;32;34627;-67
2023/07/14 00:54:41;;;;;;;4.15;2.37;;;;;;;26.25;50.51;99617.31;4431868;32;33865;-67
2023/07/14 00:57:15;;;;;;;5.32;2.70;;;;;;;25.97;51.10;99625.91;4434219;32;33540;-67
2023/07/14 00:59:43;;;;;;;6.65;2.28;;;;;;;26.18;50.57;99622.00;4430146;32;34209;-67
2023/07/14 01:02:11;;;;;;;3.87;1.98;;;;;;;26.21;50.56;99620.72;4434324;32;34612;-67
2023/07/14 01:04:41;;;;;;;6.35;2.60;;;;;;;26.15;50.69;99616.94;4431941;32;34246;-66
2023/07/14 01:07:10;;;;;;;3.53;2.03;;;;;;;26.22;50.43;99623.25;4446724;32;34736;-67
2023/07/14 01:09:40;;;;;;;8.85;2.53;;;;;;;26.21;50.48;99621.56;4430427;32;34158;-67
2023/07/14 01:12:10;;;;;;;3.40;2.12;;;;;;;26.17;50.62;99614.00;4446261;32;33887;-66
2023/07/14 01:14:41;;;;;;;3.95;2.33;;;;;;;26.07;50.91;99624.59;4432835;32;33702;-66
2023/07/14 01:17:09;;;;;;;6.87;2.22;;;;;;;26.05;50.98;99627.56;4441368;32;34991;-66
2023/07/14 01:19:51;;;;;;;5.05;2.33;;;;;;;26.08;50.91;99629.03;4446000;32;33237;-67
2023/07/14 01:22:34;;;;;;;7.60;2.83;;;;;;;26.07;50.92;99632.81;4445097;32;34136;-67
2023/07/14 01:25:44;;;;;;;7.18;2.45;;;;;;;25.86;51.77;99639.47;4450569;32;33595;-67
2023/07/14 01:28:14;;;;;;;3.67;2.28;;;;;;;25.94;51.88;99642.81;4400328;32;34697;-67
2023/07/14 01:30:42;;;;;;;4.32;2.22;;;;;;;25.78;51.76;99633.13;4399350;32;33315;-67
2023/07/14 01:33:15;;;;;;;4.97;2.67;;;;;;;25.91;51.43;99637.75;4401761;32;33976;-67
2023/07/14 01:35:52;;;;;;;5.43;2.78;;;;;;;25.51;52.77;99639.72;4400257;32;33702;-68
2023/07/14 01:38:20;;;;;;;3.70;2.45;;;;;;;25.70;52.05;99647.06;4400368;32;33608;-68
2023/07/14 01:40:48;;;;;;;5.40;2.40;;;;;;;25.73;51.86;99643.87;4398979;32;36387;-68
2023/07/14 01:43:15;;;;;;;4.87;2.67;;;;;;;25.57;52.46;99633.41;4394218;32;33579;-68
2023/07/14 01:45:51;;;;;;;9.68;2.53;;;;;;;25.29;53.21;99637.22;4384387;32;33671;-68
2023/07/14 01:48:24;;;;;;;4.07;2.33;;;;;;;25.48;53.01;99638.25;4385597;32;34629;-69
2023/07/14 01:50:57;;;;;;;6.12;3.17;;;;;;;25.54;52.52;99631.91;4382543;32;34220;-68
2023/07/14 01:53:32;;;;;;;3.90;1.98;;;;;;;25.70;52.09;99629.78;4381460;32;33733;-68
2023/07/14 01:56:04;;;;;;;6.87;2.53;;;;;;;25.58;52.19;99632.34;4372739;32;33728;-68
2023/07/14 01:58:52;;;;;;;5.95;2.58;;;;;;;25.33;52.60;99630.31;4371832;32;33810;-68
2023/07/14 02:01:19;;;;;;;4.43;2.95;;;;;;;25.30;52.61;99633.47;4380437;32;34187;-68
2023/07/14 02:03:50;;;;;;;7.55;2.50;;;;;;;25.60;51.99;99632.12;4370337;32;33766;-69
2023/07/14 02:06:18;;;;;;;6.22;2.92;;;;;;;25.64;51.90;99636.94;4429821;32;33752;-68
2023/07/14 02:08:46;;;;;;;5.87;2.10;;;;;;;25.52;52.22;99630.44;4433290;32;33844;-68
2023/07/14 02:11:22;;;;;;;7.00;2.50;;;;;;;25.47;52.36;99635.75;4440619;32;33935;-68
2023/07/14 02:13:54;;;;;;;4.68;2.00;;;;;;;25.58;51.59;99637.81;4432601;32;34658;-69
2023/07/14 02:16:23;;;;;;;5.00;2.72;;;;;;;25.63;51.37;99637.19;4431270;32;35303;-68
2023/07/14 02:18:51;;;;;;;5.47;2.33;;;;;;;25.66;51.19;99636.75;4431498;32;33537;-68
2023/07/14 02:21:27;;;;;;;6.00;3.03;;;;;;;25.74;50.80;99642.81;4431052;32;32004;-68
2023/07/14 02:23:55;;;;;;;5.47;2.78;;;;;;;25.50;51.45;99646.28;4433614;32;34008;-68
2023/07/14 02:26:32;;;;;;;4.25;2.40;;;;;;;25.43;51.73;99650.94;4432219;32;34160;-68
2023/07/14 02:29:00;;;;;;;4.35;2.03;;;;;;;25.46;51.64;99650.50;4435442;32;34422;-68
2023/07/14 02:31:40;;;;;;;4.20;2.70;;;;;;;25.45;51.61;99651.53;4434764;32;33980;-68
2023/07/14 02:34:12;;;;;;;6.35;3.25;;;;;;;25.42;51.69;99654.72;4434212;32;33874;-68
2023/07/14 02:36:58;;;;;;;3.72;2.25;;;;;;;25.26;52.16;99665.06;4416765;32;35292;-67
2023/07/14 02:39:31;;;;;;;5.40;2.83;;;;;;;25.38;51.75;99664.41;4418305;32;33384;-68
2023/07/14 02:42:00;;;;;;;6.40;2.45;;;;;;;25.42;51.57;99666.50;4410874;32;32948;-68
2023/07/14 02:44:36;;;;;;;5.62;3.35;;;;;;;25.36;51.84;99669.25;4417184;32;34614;-68
2023/07/14 02:47:12;;;;;;;4.72;2.25;;;;;;;25.46;51.48;99670.53;4413600;32;35310;-68
2023/07/14 02:49:41;;;;;;;6.62;2.65;;;;;;;25.41;51.89;99673.06;4415911;32;33697;-67
2023/07/14 02:52:08;;;;;;;6.12;2.80;;;;;;;25.34;52.14;99685.94;4416104;32;33514;-67
2023/07/14 02:54:37;;;;;;;3.83;2.03;;;;;;;25.48;51.69;99682.09;4417381;32;33474;-67
2023/07/14 02:57:05;;;;;;;3.47;2.00;;;;;;;25.57;51.33;99690.94;4415870;32;34962;-67
2023/07/14 02:59:33;;;;;;;3.92;2.58;;;;;;;25.50;51.56;99690.97;4418766;32;33832;-67
2023/07/14 03:02:02;;;;;;;12.40;2.78;;;;;;;25.50;51.46;99687.38;4412965;32;32494;-68
2023/07/14 03:04:30;;;;;;;4.37;2.35;;;;;;;25.25;52.02;99687.19;4413469;32;35606;-67
2023/07/14 03:06:57;;;;;;;3.58;2.12;;;;;;;25.32;51.68;99693.50;4435089;32;34897;-67
2023/07/14 03:09:25;;;;;;;6.35;2.50;;;;;;;25.36;51.61;99688.44;4462676;32;35068;-67
2023/07/14 03:11:53;;;;;;;5.35;2.15;;;;;;;25.32;51.42;99693.50;4459356;32;33244;-67
2023/07/14 03:14:20;;;;;;;5.03;2.50;;;;;;;25.33;51.55;99692.47;4467950;32;33479;-65
2023/07/14 03:16:48;;;;;;;5.50;2.83;;;;;;;25.38;51.45;99697.28;4471547;32;34207;-65
2023/07/14 03:19:16;;;;;;;4.95;2.45;;;;;;;25.36;51.46;99697.53;4464509;32;33841;-66
2023/07/14 03:21:44;;;;;;;6.07;2.37;;;;;;;25.23;51.73;99692.91;4415954;32;33308;-66
2023/07/14 03:24:11;;;;;;;4.65;2.08;;;;;;;25.29;51.31;99693.91;4415893;32;35070;-68
2023/07/14 03:26:39;;;;;;;4.25;2.33;;;;;;;25.31;51.31;99697.31;4411414;32;35609;-68
2023/07/14 03:29:06;;;;;;;4.07;2.08;;;;;;;25.31;51.50;99692.66;4414074;32;34482;-69
2023/07/14 03:31:34;;;;;;;4.25;2.12;;;;;;;25.28;51.56;99698.56;4416961;32;34117;-69
2023/07/14 03:34:02;;;;;;;4.05;2.33;;;;;;;24.93;52.44;99695.16;4418173;32;33916;-69
2023/07/14 03:36:29;;;;;;;4.78;2.05;;;;;;;25.16;52.03;99697.50;4415087;32;33686;-71
2023/07/14 03:39:21;;;;;;;3.87;2.12;;;;;;;25.25;51.60;99687.19;4405003;32;35127;-68
2023/07/14 03:41:50;;;;;;;5.15;2.28;;;;;;;25.28;51.54;99695.00;4399970;32;32921;-68
2023/07/14 03:44:18;;;;;;;4.50;1.77;;;;;;;25.35;51.18;99692.25;4403110;32;33707;-72
2023/07/14 03:46:45;;;;;;;3.70;1.92;;;;;;;25.35;51.28;99704.03;4386161;32;32796;-67
2023/07/14 03:49:14;;;;;;;4.65;2.42;;;;;;;25.35;51.35;99701.28;4403600;32;33765;-67
2023/07/14 03:51:42;;;;;;;4.20;1.60;;;;;;;25.35;51.23;99697.72;4403401;32;33194;-67
2023/07/14 03:54:10;;;;;;;3.58;1.85;;;;;;;25.20;51.71;99711.63;4436153;32;33578;-67
2023/07/14 03:56:38;;;;;;;5.22;2.90;;;;;;;25.18;51.83;99705.53;4434391;32;35137;-67
2023/07/14 03:59:07;;;;;;;3.12;1.55;;;;;;;25.05;51.96;99698.13;4434198;32;33512;-68
2023/07/14 04:01:37;;;;;;;4.60;2.30;;;;;;;24.80;52.58;99698.72;4443622;32;34199;-70
2023/07/14 04:04:07;;;;;;;5.43;2.45;;;;;;;24.83;52.33;99702.94;4435399;32;33738;-68
2023/07/14 04:06:34;;;;;;;5.15;2.53;;;;;;;24.95;52.22;99694.97;4434016;32;33796;-66
2023/07/14 04:09:02;;;;;;;4.15;2.33;;;;;;;24.84;52.35;99690.94;4434964;32;34399;-67
2023/07/14 04:11:35;;;;;;;2.95;1.83;;;;;;;24.46;53.54;99696.09;4435273;32;33160;-67
2023/07/14 04:14:05;;;;;;;4.70;2.12;;;;;;;24.63;53.00;99694.69;4435185;32;34953;-67
2023/07/14 04:16:35;;;;;;;4.22;2.15;;;;;;;24.38;53.67;99702.59;4431709;32;34532;-70
2023/07/14 04:19:03;;;;;;;4.82;2.22;;;;;;;24.74;52.79;99710.50;4434097;32;34666;-70
2023/07/14 04:21:31;;;;;;;3.87;2.17;;;;;;;24.56;53.39;99702.06;4432624;32;32685;-69
2023/07/14 04:24:00;;;;;;;3.50;1.95;;;;;;;24.44;54.08;99709.16;4434533;32;33629;-69
2023/07/14 04:26:28;;;;;;;5.07;2.10;;;;;;;24.55;53.64;99714.88;4432074;32;33920;-69
2023/07/14 04:28:56;;;;;;;6.30;2.65;;;;;;;24.79;53.15;99716.19;4434270;32;33832;-69
2023/07/14 04:31:23;;;;;;;3.28;1.75;;;;;;;25.01;52.85;99718.75;4431975;32;33123;-69
2023/07/14 04:33:51;;;;;;;5.50;2.25;;;;;;;25.39;51.75;99715.41;4434995;32;34509;-69
2023/07/14 04:36:19;;;;;;;3.10;1.80;;;;;;;25.13;52.66;99721.75;4433590;32;33949;-69
2023/07/14 04:39:06;;;;;;;7.07;2.95;;;;;;;25.49;51.81;99724.91;4435162;32;33768;-70
2023/07/14 04:41:34;;;;;;;6.85;2.75;;;;;;;25.10;52.66;99729.31;4435273;32;34424;-70
2023/07/14 04:44:08;;;;;;;3.97;2.17;;;;;;;25.62;51.20;99739.63;4435134;32;33377;-70
2023/07/14 04:46:36;;;;;;;4.20;2.45;;;;;;;25.98;50.38;99741.94;4432691;32;34752;-70
2023/07/14 04:49:04;;;;;;;4.30;2.40;;;;;;;26.05;49.99;99736.41;4429852;32;33642;-70
2023/07/14 04:51:33;;;;;;;4.75;2.62;;;;;;;26.04;50.09;99743.81;4435115;32;34144;-70
2023/07/14 04:54:01;;;;;;;4.40;2.37;;;;;;;26.11;49.98;99747.38;4436144;32;33637;-71
2023/07/14 04:56:29;;;;;;;9.43;2.65;;;;;;;26.04;50.57;99752.03;4435066;32;33675;-70
2023/07/14 04:58:57;;;;;;;4.37;2.12;;;;;;;26.02;50.63;99754.97;4434269;32;34812;-71
2023/07/14 05:01:27;;;;;;;7.00;2.60;;;;;;;26.08;50.45;99761.50;4429629;32;33563;-70
2023/07/14 05:03:55;;;;;;;5.37;2.35;;;;;;;26.38;49.56;99752.75;4434128;32;33272;-73
2023/07/14 05:06:22;;;;;;;7.87;2.65;;;;;;;26.16;50.44;99766.78;4434458;32;34937;-70
2023/07/14 05:08:50;;;;;;;5.47;2.85;;;;;;;26.48;49.93;99769.62;4430347;32;33876;-69
2023/07/14 05:11:18;;;;;;;4.03;2.37;;;;;;;26.54;50.12;99771.50;4433731;32;33176;-68
2023/07/14 05:13:46;;;;;;;5.68;2.55;;;;;;;26.67;49.82;99776.06;4434844;32;34558;-68
2023/07/14 05:16:14;;;;;;;5.15;3.15;;;;;;;26.56;50.05;99776.78;4436003;32;34884;-68
2023/07/14 05:18:42;;;;;;;6.90;1.87;;;;;;;26.71;49.98;99785.59;4433764;32;33804;-68
2023/07/14 05:21:09;;;;;;;8.43;2.87;;;;;;;26.99;49.60;99782.44;4426561;32;32992;-68
2023/07/14 05:23:37;;;;;;;6.60;3.33;;;;;;;26.84;49.73;99788.25;4435619;32;34082;-68
2023/07/14 05:26:05;;;;;;;5.60;2.95;;;;;;;26.41;49.44;99790.72;4434161;32;33901;-68
2023/07/14 05:28:33;;;;;;;3.40;2.15;;;;;;;26.61;49.17;99787.94;4437020;32;33680;-68
2023/07/14 05:31:02;;;;;;;5.53;2.62;;;;;;;26.98;48.25;99785.44;4429027;32;34666;-70
2023/07/14 05:33:31;;;;;;;6.70;2.08;;;;;;;26.98;48.02;99786.25;4433440;32;33700;-67
2023/07/14 05:35:58;;;;;;;6.18;2.60;;;;;;;27.14;47.94;99782.19;4435631;32;33755;-68
2023/07/14 05:38:26;;;;;;;5.22;2.70;;;;;;;26.98;48.42;99783.53;4435985;32;34664;-70
2023/07/14 05:40:54;;;;;;;7.72;3.42;;;;;;;27.04;49.05;99788.13;4433607;32;32853;-70
2023/07/14 05:43:26;;;;;;;5.65;2.83;;;;;;;27.20;48.78;99784.03;4432324;32;34715;-69
2023/07/14 05:45:55;;;;;;;5.93;2.78;;;;;;;27.23;47.44;99780.03;4434815;32;33948;-68
2023/07/14 05:48:23;;;;;;;5.32;2.87;;;;;;;27.39;47.54;99784.97;4434271;32;33872;-68
2023/07/14 05:50:50;;;;;;;6.10;2.72;;;;;;;27.47;47.70;99784.66;4423550;32;32186;-69
2023/07/14 05:53:18;;;;;;;7.72;3.08;;;;;;;27.53;47.41;99788.44;4435192;32;33593;-68
2023/07/14 05:55:47;;;;;;;6.55;2.33;;;;;;;27.54;47.17;99790.09;4432236;32;34053;-68
2023/07/14 05:58:15;;;;;;;4.78;2.90;;;;;;;27.47;47.47;99798.41;4433904;32;33756;-68
2023/07/14 06:00:43;;;;;;;6.40;3.25;;;;;;;27.25;47.27;99800.69;4433408;32;33462;-68
2023/07/14 06:03:16;;;;;;;6.45;3.28;;;;;;;27.48;47.62;99797.38;4434330;32;34562;-68
2023/07/14 06:05:46;;;;;;;6.12;2.83;;;;;;;27.63;47.60;99788.75;4434655;32;35235;-68
2023/07/14 06:08:15;;;;;;;7.20;2.67;;;;;;;27.69;47.65;99790.63;4434646;32;34448;-67
2023/07/14 06:10:42;;;;;;;5.22;2.95;;;;;;;27.62;47.59;99787.94;4431752;32;33091;-67
2023/07/14 06:13:10;;;;;;;6.00;2.90;;;;;;;27.83;46.68;99791.34;4432524;32;34757;-67
2023/07/14 06:15:38;;;;;;;5.00;2.70;;;;;;;27.76;46.22;99796.06;4426896;32;33898;-67
2023/07/14 06:18:06;;;;;;;4.80;2.70;;;;;;;27.82;46.63;99801.53;4430934;32;33686;-68
2023/07/14 06:20:33;;;;;;;7.85;2.90;;;;;;;27.85;46.49;99803.81;4430269;32;34109;-67
2023/07/14 06:23:02;;;;;;;5.65;2.75;;;;;;;28.05;45.41;99802.78;4433397;32;33703;-67
2023/07/14 06:25:30;;;;;;;5.95;3.08;;;;;;;28.13;46.32;99804.41;4434715;32;34967;-67
2023/07/14 06:27:57;;;;;;;5.22;3.22;;;;;;;28.14;45.44;99808.84;4434214;32;33464;-67
2023/07/14 06:30:25;;;;;;;7.03;3.22;;;;;;;28.06;45.44;99802.56;4430567;32;33333;-67
2023/07/14 06:32:53;;;;;;;6.32;2.92;;;;;;;27.74;46.12;99803.72;4434652;32;34676;-68
2023/07/14 06:35:22;;;;;;;9.30;3.22;;;;;;;27.71;45.52;99806.91;4434711;32;33649;-68
2023/07/14 06:37:49;;;;;;;8.95;2.70;;;;;;;26.88;47.72;99813.38;4433154;32;34257;-67
2023/07/14 06:40:17;;;;;;;5.68;3.30;;;;;;;27.73;46.49;99818.50;4432831;32;34188;-68
2023/07/14 06:42:45;;;;;;;5.82;2.85;;;;;;;27.61;46.25;99811.00;4432333;32;35028;-67
2023/07/14 06:45:12;;;;;;;5.53;2.78;;;;;;;27.54;45.03;99818.44;4442934;32;35203;-68
2023/07/14 06:47:40;;;;;;;5.07;2.58;;;;;;;27.33;47.05;99813.34;4434674;32;34633;-67
2023/07/14 06:50:08;;;;;;;5.75;2.83;;;;;;;27.68;45.28;99818.34;4434336;32;33502;-67
2023/07/14 06:52:38;;;;;;;5.40;3.03;;;;;;;27.70;45.83;99814.28;4432357;32;33944;-67
2023/07/14 06:55:06;;;;;;;5.15;2.50;;;;;;;27.95;44.82;99817.06;4432058;32;32468;-67
2023/07/14 06:57:33;;;;;;;11.27;3.67;;;;;;;28.05;43.88;99814.62;4436268;32;34015;-67
2023/07/14 07:00:02;;;;;;;6.93;2.97;;;;;;;27.96;44.24;99809.63;4434682;32;32048;-68
2023/07/14 07:02:30;;;;;;;5.82;2.97;;;;;;;27.78;45.15;99814.06;4432626;32;34694;-68
2023/07/14 07:04:58;;;;;;;5.65;3.03;;;;;;;27.77;45.35;99812.38;4435223;32;34039;-68
2023/07/14 07:07:26;;;;;;;6.97;2.20;;;;;;;28.01;44.85;99809.81;4432926;32;33595;-68
2023/07/14 07:09:55;;;;;;;5.95;3.10;;;;;;;28.30;44.12;99806.31;4426707;32;34138;-68
2023/07/14 07:12:22;;;;;;;5.07;2.45;;;;;;;28.26;44.79;99812.53;4432792;32;34697;-68
2023/07/14 07:14:50;;;;;;;4.15;2.50;;;;;;;28.33;43.74;99813.28;4436116;32;33848;-68
2023/07/14 07:17:18;;;;;;;8.48;2.97;;;;;;;28.05;44.67;99816.53;4436380;32;33933;-68
2023/07/14 07:19:45;;;;;;;7.57;3.30;;;;;;;28.38;44.15;99812.59;4435634;32;34319;-68
2023/07/14 07:22:13;;;;;;;5.20;2.85;;;;;;;28.23;43.61;99818.47;4437093;32;33696;-68
2023/07/14 07:24:41;;;;;;;5.55;2.70;;;;;;;28.19;44.35;99826.34;4436716;32;34037;-68
2023/07/14 07:27:08;;;;;;;5.05;2.55;;;;;;;28.45;43.17;99824.41;4436166;32;33836;-67
2023/07/14 07:29:39;;;;;;;5.87;2.92;;;;;;;28.33;44.59;99818.78;4436776;32;33499;-68
2023/07/14 07:32:08;;;;;;;5.68;2.83;;;;;;;28.30;42.88;99824.75;4436218;32;34023;-68
2023/07/14 07:34:36;;;;;;;5.53;3.25;;;;;;;28.06;43.55;99824.59;4436120;32;34820;-68
2023/07/14 07:37:04;;;;;;;10.32;3.08;;;;;;;28.00;43.72;99822.72;4431728;32;33901;-67
2023/07/14 07:39:32;;;;;;;8.13;3.42;;;;;;;28.35;43.65;99822.16;4438002;32;34349;-67
2023/07/14 07:41:59;;;;;;;6.12;3.37;;;;;;;28.05;43.26;99822.88;4434965;32;33047;-67
2023/07/14 07:44:27;;;;;;;6.45;2.65;;;;;;;28.33;42.84;99827.88;4436212;32;34164;-68
2023/07/14 07:46:58;;;;;;;15.82;3.17;;;;;;;28.60;42.72;99822.09;4435276;32;33952;-68
2023/07/14 07:49:26;;;;;;;5.22;2.92;;;;;;;28.39;41.92;99823.38;4436737;32;33055;-67
2023/07/14 07:51:54;;;;;;;5.00;2.80;;;;;;;28.33;43.12;99822.38;4436039;32;34639;-67
2023/07/14 07:54:21;;;;;;;6.60;2.67;;;;;;;28.31;42.29;99821.78;4435870;32;33549;-67
2023/07/14 07:56:50;;;;;;;5.20;2.50;;;;;;;27.81;43.18;99823.75;4434486;32;34623;-68
2023/07/14 07:59:19;;;;;;;4.60;2.83;;;;;;;27.67;43.44;99822.97;4433622;32;34125;-68
2023/07/14 08:01:47;;;;;;;6.55;3.20;;;;;;;28.35;42.86;99816.66;4430998;32;33890;-68
2023/07/14 08:04:16;;;;;;;5.75;2.78;;;;;;;28.50;42.85;99822.62;4434528;32;35186;-68
2023/07/14 08:06:44;;;;;;;3.83;2.20;;;;;;;28.56;42.11;99815.38;4434159;32;33848;-68
2023/07/14 08:09:12;;;;;;;4.90;2.05;;;;;;;28.78;42.08;99815.72;4436635;32;33341;-68
2023/07/14 08:11:40;;;;;;;6.85;2.78;;;;;;;28.43;41.89;99821.88;4435356;32;33990;-68
2023/07/14 08:14:13;;;;;;;5.55;2.58;;;;;;;28.68;41.42;99819.03;4434720;32;35238;-68
2023/07/14 08:16:41;;;;;;;3.62;2.45;;;;;;;28.76;41.76;99821.47;4434240;32;34566;-68
2023/07/14 08:19:09;;;;;;;6.03;2.53;;;;;;;28.89;40.47;99823.22;4433550;32;34461;-68
2023/07/14 08:21:37;;;;;;;5.50;2.75;;;;;;;29.12;40.25;99813.41;4434869;32;35102;-68
2023/07/14 08:24:07;;;;;;;5.05;2.22;;;;;;;28.90;39.84;99819.38;4433499;32;34097;-68
2023/07/14 08:26:36;;;;;;;6.60;2.92;;;;;;;28.82;40.71;99814.19;4431932;32;35145;-68
2023/07/14 08:29:04;;;;;;;6.70;2.67;;;;;;;29.11;39.02;99817.22;4436071;32;33056;-68
2023/07/14 08:31:32;;;;;;;4.45;2.08;;;;;;;28.84;40.43;99814.81;4433209;32;33697;-68
2023/07/14 08:34:00;;;;;;;5.90;2.45;;;;;;;28.99;39.49;99818.00;4434415;32;33781;-68
2023/07/14 08:36:28;;;;;;;4.28;2.17;;;;;;;28.95;38.88;99822.25;4433079;32;34849;-68
2023/07/14 08:38:56;;;;;;;4.18;2.33;;;;;;;29.09;39.17;99824.88;4435467;32;33430;-68
2023/07/14 08:41:29;;;;;;;4.37;1.87;;;;;;;29.22;39.45;99821.94;4435845;32;33678;-68
2023/07/14 08:44:26;;;;;;;9.27;2.58;;;;;;;28.85;38.38;99818.41;4434811;32;34944;-68
2023/07/14 08:47:06;;;;;;;4.35;2.35;;;;;;;28.98;38.69;99824.56;4435693;32;34008;-68
2023/07/14 08:49:47;;;;;;;4.32;1.70;;;;;;;29.39;36.76;99822.94;4434126;32;33211;-68
2023/07/14 08:52:23;;;;;;;3.05;1.80;;;;;;;28.98;37.75;99823.72;4432031;32;34253;-68
2023/07/14 08:55:16;;;;;;;7.68;2.60;;;;;;;29.54;35.49;99816.97;4441958;32;33843;-68
2023/07/14 08:57:50;;;;;;;4.28;2.30;;;;;;;29.75;35.50;99823.03;4438571;32;33803;-67
2023/07/14 09:00:25;;;;;;;3.87;1.90;;;;;;;29.80;34.36;99826.75;4428883;32;33341;-67
2023/07/14 09:03:09;;;;;;;2.92;1.65;;;;;;;29.55;33.92;99820.56;4432088;32;34022;-66
2023/07/14 09:05:48;;;;;;;3.80;2.30;;;;;;;28.77;35.91;99825.06;4427634;32;34099;-67
2023/07/14 09:08:16;;;;;;;4.50;2.10;;;;;;;29.40;35.57;99824.59;4427929;32;33857;-66
2023/07/14 09:10:54;;;;;;;4.37;1.95;;;;;;;29.44;34.81;99833.28;4429784;32;33129;-66
2023/07/14 09:13:31;;;;;;;3.20;1.83;;;;;;;29.66;34.73;99833.56;4443435;32;33977;-66
2023/07/14 09:15:59;;;;;;;4.65;1.30;;;;;;;29.57;33.67;99827.53;4432637;32;34117;-67
2023/07/14 09:18:39;;;;;;;3.28;1.83;;;;;;;30.01;33.02;99827.22;4443952;32;33791;-67
2023/07/14 09:21:21;;;;;;;3.28;2.00;;;;;;;30.00;33.41;99833.84;4434827;32;33152;-66
2023/07/14 09:24:18;;;;;;;8.05;2.03;;;;;;;29.53;32.99;99831.00;4444743;32;34918;-67
2023/07/14 09:26:50;;;;;;;5.37;2.55;;;;;;;30.03;33.60;99831.44;4396594;32;34414;-67
2023/07/14 09:29:20;;;;;;;2.97;1.50;;;;;;;30.47;33.67;99831.91;4400700;32;32442;-67
2023/07/14 09:32:00;;;;;;;4.03;2.03;;;;;;;30.68;33.12;99827.66;4387284;32;32731;-66
2023/07/14 09:34:32;;;;;;;4.07;2.10;;;;;;;30.45;31.19;99830.47;4396760;32;34555;-66
2023/07/14 09:37:01;;;;;;;3.72;1.90;;;;;;;30.42;31.85;99831.78;4386178;32;33703;-66
2023/07/14 09:39:40;;;;;;;8.13;2.55;;;;;;;30.81;31.85;99821.03;4381231;32;33971;-67
2023/07/14 09:42:31;;;;;;;3.35;1.90;;;;;;;30.55;30.85;99814.12;4387027;32;34437;-66
2023/07/14 09:45:08;;;;;;;2.97;1.83;;;;;;;30.63;31.05;99822.03;4388190;32;33755;-66
2023/07/14 09:47:36;;;;;;;2.90;1.70;;;;;;;31.13;28.32;99826.06;4398966;32;33827;-67
2023/07/14 09:50:05;;;;;;;3.58;1.90;;;;;;;31.35;27.22;99815.19;4398743;32;33630;-67
2023/07/14 09:52:48;;;;;;;3.90;1.90;;;;;;;31.10;29.05;99819.94;4380793;32;32928;-67
2023/07/14 09:55:16;;;;;;;4.95;2.30;;;;;;;31.38;29.08;99814.69;4380412;32;33916;-67
2023/07/14 09:57:44;;;;;;;6.55;1.87;;;;;;;31.39;28.75;99811.66;4380674;32;33537;-66
2023/07/14 10:00:39;;;;;;;5.53;2.17;;;;;;;31.41;29.10;99806.72;4380047;32;33789;-66
2023/07/14 10:03:15;;;;;;;4.70;2.10;;;;;;;31.52;29.32;99804.94;4381645;32;33416;-67
2023/07/14 10:05:49;;;;;;;3.33;1.83;;;;;;;31.48;29.25;99803.78;4395662;32;37012;-67
2023/07/14 10:08:27;;;;;;;5.20;2.00;;;;;;;31.98;28.54;99805.75;4397391;32;34284;-68
2023/07/14 10:10:56;;;;;;;6.62;2.40;;;;;;;31.72;28.67;99805.31;4395897;32;33630;-67
2023/07/14 10:13:26;;;;;;;5.60;2.08;;;;;;;31.96;29.49;99805.97;4400059;32;34185;-67
2023/07/14 10:16:07;;;;;;;3.62;1.85;;;;;;;32.19;28.19;99796.63;4387530;32;33819;-67
2023/07/14 10:18:55;;;;;;;4.72;2.50;;;;;;;32.21;27.41;99801.91;4400815;32;33908;-67
2023/07/14 10:21:29;;;;;;;5.25;2.72;;;;;;;32.22;29.00;99804.41;4400336;32;33777;-68
2023/07/14 10:24:00;;;;;;;;;;;;;;;32.58;28.24;99793.81;4399593;32;33328;-68
2023/07/14 10:26:32;;;;;;;5.22;2.47;;;;;;;32.85;27.41;99790.28;4399494;32;33981;-67
2023/07/14 10:29:04;;;;;;;4.12;2.25;;;;;;;32.93;27.99;99784.25;4397153;32;33833;-67
2023/07/14 10:31:39;;;;;;;4.93;2.03;;;;;;;33.08;27.94;99787.22;4429482;32;33903;-65
2023/07/14 10:34:24;;;;;;;4.70;2.20;;;;;;;32.45;28.22;99786.75;4454181;32;32102;-65
2023/07/14 10:36:57;;;;;;;5.55;2.42;;;;;;;32.25;28.54;99783.69;4453505;32;33611;-65
2023/07/14 10:39:36;;;;;;;5.62;2.30;;;;;;;32.88;28.53;99778.69;4454505;32;35074;-65
2023/07/14 10:42:08;;;;;;;5.97;2.78;;;;;;;32.79;28.85;99781.06;4447943;32;33685;-67
2023/07/14 10:44:40;;;;;;;7.70;2.58;;;;;;;32.98;28.92;99781.59;4460323;32;33835;-66
2023/07/14 10:47:31;;;;;;;5.62;2.53;;;;;;;32.94;29.52;99775.69;4454544;32;34535;-65
2023/07/14 10:50:14;;;;;;;6.07;2.97;;;;;;;33.42;28.88;99777.81;4462746;32;33740;-66
2023/07/14 10:52:44;;;;;;;9.15;3.08;;;;;;;33.64;28.45;99767.47;4443071;32;32838;-65
2023/07/14 10:55:21;;;;;;;4.55;2.35;;;;;;;32.84;28.83;99764.50;4459540;32;32748;-65
2023/07/14 10:57:56;;;;;;;6.85;2.65;;;;;;;32.84;27.99;99770.03;4456233;32;33715;-66
2023/07/14 11:00:56;;;;;;;7.95;2.70;;;;;;;32.83;28.06;99762.81;4420614;32;33814;-65
2023/07/14 11:04:06;;;;;;;6.40;2.83;;;;;;;32.78;28.62;99760.00;4413326;32;33637;-64
2023/07/14 11:06:35;;;;;;;7.95;3.17;;;;;;;32.78;29.83;99762.78;4335339;32;32248;-65
2023/07/14 11:09:10;;;;;;;5.72;2.92;;;;;;;32.81;30.42;99759.47;4326679;33;34978;-65
2023/07/14 11:11:56;;;;;;;7.20;3.75;;;;;;;32.61;30.92;99754.53;4327913;32;33993;-65
2023/07/14 11:14:43;;;;;;;6.07;3.05;;;;;;;32.86;30.72;99750.37;4326238;33;33219;-65
2023/07/14 11:17:23;;;;;;;4.55;2.62;;;;;;;32.46;30.64;99744.13;4327335;33;31570;-65
2023/07/14 11:19:57;;;;;;;5.40;2.85;;;;;;;32.57;30.71;99758.09;4329529;32;33487;-65
2023/07/14 11:22:34;;;;;;;;;;;;;;;32.73;31.46;99748.84;4320835;33;34366;-65
2023/07/14 11:25:09;;;;;;;5.45;3.00;;;;;;;32.11;33.16;99747.25;4326943;33;34953;-65
2023/07/14 11:27:47;;;;;;;5.50;3.08;;;;;;;32.16;32.73;99749.22;4327961;33;32838;-65
2023/07/14 11:30:20;;;;;;;5.25;2.95;;;;;;;32.09;32.15;99745.81;4328015;33;33437;-65
2023/07/14 11:32:57;;;;;;;5.85;3.28;;;;;;;32.00;32.88;99746.25;4361529;32;33989;-66
2023/07/14 11:35:38;;;;;;;5.82;3.30;;;;;;;32.13;33.70;99752.50;4344511;32;33985;-67
2023/07/14 11:38:40;;;;;;;5.82;3.40;;;;;;;31.60;33.04;99752.00;4343848;32;32370;-66
2023/07/14 11:41:07;;;;;;;4.60;2.80;;;;;;;31.89;32.17;99749.97;4403933;32;33729;-65
2023/07/14 11:43:35;;;;;;;5.72;3.25;;;;;;;31.87;32.40;99742.97;4433790;32;34748;-66
2023/07/14 11:46:06;;;;;;;4.62;2.83;;;;;;;31.37;33.39;99743.88;4445037;32;33592;-66
2023/07/14 11:48:44;;;;;;;6.55;2.78;;;;;;;31.72;32.78;99733.38;4429727;32;33493;-66
2023/07/14 11:51:17;;;;;;;5.15;2.40;;;;;;;31.59;34.69;99738.41;4442625;32;33520;-65
2023/07/14 11:54:19;;;;;;;4.70;2.37;;;;;;;31.55;33.28;99740.84;4432244;32;35401;-65
2023/07/14 11:56:55;;;;;;;7.62;3.10;;;;;;;31.62;33.99;99737.88;4431725;32;34230;-66